createdAt,value
2023-03-26T00:02:40.071Z,15.85
2023-03-26T00:08:03.099Z,17.55
2023-03-26T00:13:24.896Z,18.67
2023-03-26T00:18:47.707Z,20.48
2023-03-26T00:24:15.506Z,19.75
2023-03-26T00:29:37.471Z,19.40
2023-03-26T00:35:01.145Z,16.83
2023-03-26T00:40:23.840Z,18.30
2023-03-26T00:45:54.728Z,20.05
2023-03-26T00:51:18.392Z,17.23
2023-03-26T00:56:40.346Z,10.05
2023-03-26T01:02:02.692Z,12.77
2023-03-26T01:07:29.281Z,11.23
2023-03-26T01:12:51.360Z,9.27
2023-03-26T01:18:14.097Z,10.45
2023-03-26T01:23:49.603Z,10.32
2023-03-26T01:29:39.502Z,14.03
2023-03-26T01:35:26.157Z,15.18
2023-03-26T01:46:19.630Z,10.20
2023-03-26T01:51:42.871Z,10.45
2023-03-26T01:57:07.633Z,14.20
2023-03-26T02:02:56.009Z,11.67
2023-03-26T02:08:24.694Z,10.70
2023-03-26T02:13:47.343Z,7.85
2023-03-26T02:19:15.960Z,11.85
2023-03-26T02:24:38.912Z,8.23
2023-03-26T02:30:01.306Z,6.70
2023-03-26T02:35:23.242Z,8.65
2023-03-26T02:40:45.212Z,10.43
2023-03-26T02:46:07.058Z,8.68
2023-03-26T02:51:29.118Z,8.98
2023-03-26T02:56:51.038Z,8.73
2023-03-26T03:02:13.722Z,7.43
2023-03-26T03:07:38.102Z,9.50
2023-03-26T03:13:00.087Z,8.93
2023-03-26T03:18:22.192Z,7.60
2023-03-26T03:23:43.971Z,9.02
2023-03-26T03:29:05.749Z,6.85
2023-03-26T03:34:28.026Z,8.23
2023-03-26T03:39:49.842Z,8.30
2023-03-26T03:45:11.929Z,12.02
2023-03-26T03:50:35.879Z,11.57
2023-03-26T03:55:58.604Z,9.40
2023-03-26T04:01:23.010Z,5.50
2023-03-26T04:06:44.885Z,9.50
2023-03-26T04:12:07.065Z,4.05
2023-03-26T04:17:30.764Z,11.38
2023-03-26T04:22:53.030Z,7.85
2023-03-26T04:28:35.773Z,5.47
2023-03-26T04:34:06.648Z,9.75
2023-03-26T04:39:29.547Z,6.25
2023-03-26T04:44:52.564Z,5.35
2023-03-26T04:50:14.980Z,5.47
2023-03-26T04:56:16.173Z,7.43
2023-03-26T05:01:38.132Z,7.40
2023-03-26T05:07:00.151Z,9.90
2023-03-26T05:12:22.166Z,5.22
2023-03-26T05:17:44.075Z,6.30
2023-03-26T05:23:06.067Z,10.40
2023-03-26T05:28:28.509Z,8.32
2023-03-26T05:33:50.758Z,8.25
2023-03-26T05:39:14.526Z,5.63
2023-03-26T05:44:36.474Z,5.35
2023-03-26T05:49:58.198Z,8.00
2023-03-26T05:55:20.418Z,6.63
2023-03-26T06:00:42.507Z,5.95
2023-03-26T06:06:08.023Z,5.15
2023-03-26T06:16:52.359Z,4.53
2023-03-26T06:22:14.212Z,4.55
2023-03-26T06:27:36.005Z,14.15
2023-03-26T06:32:57.913Z,22.60
2023-03-26T06:38:19.701Z,23.50
2023-03-26T06:43:41.553Z,13.75
2023-03-26T06:49:03.743Z,15.25
2023-03-26T06:54:25.589Z,12.43
2023-03-26T06:59:47.447Z,22.77
2023-03-26T07:05:09.511Z,16.15
2023-03-26T07:10:31.704Z,17.05
2023-03-26T07:15:53.484Z,17.40
2023-03-26T07:21:15.891Z,9.95
2023-03-26T07:27:01.046Z,14.88
2023-03-26T07:32:28.747Z,7.30
2023-03-26T07:37:53.486Z,10.07
2023-03-26T07:43:33.990Z,7.63
2023-03-26T07:48:58.475Z,9.45
2023-03-26T07:54:20.797Z,7.75
2023-03-26T07:59:59.960Z,7.68
2023-03-26T08:05:31.331Z,6.38
2023-03-26T08:11:07.481Z,8.43
2023-03-26T08:27:59.139Z,9.75
2023-03-26T08:33:23.002Z,13.27
2023-03-26T08:38:46.817Z,7.28
2023-03-26T08:44:21.775Z,7.50
2023-03-26T08:49:46.366Z,6.18
2023-03-26T08:55:40.799Z,10.03
2023-03-26T09:01:36.669Z,8.13
2023-03-26T09:07:20.064Z,9.70
2023-03-26T09:13:26.460Z,4.97
2023-03-26T09:19:07.090Z,7.20
2023-03-26T09:25:02.625Z,14.80
2023-03-26T09:30:36.431Z,18.90
2023-03-26T09:36:17.044Z,18.15
2023-03-26T09:41:52.775Z,11.55
2023-03-26T09:47:42.053Z,13.88
2023-03-26T09:53:27.149Z,8.88
2023-03-26T09:59:10.549Z,10.02
2023-03-26T10:04:51.802Z,7.47
2023-03-26T10:10:31.815Z,10.40
2023-03-26T10:16:05.878Z,4.72
2023-03-26T10:21:37.880Z,5.65
2023-03-26T10:27:30.191Z,3.72
2023-03-26T10:33:10.633Z,6.32
2023-03-26T10:38:47.325Z,4.97
2023-03-26T10:44:28.729Z,16.08
2023-03-26T10:50:17.226Z,6.82
2023-03-26T10:55:52.499Z,4.70
2023-03-26T11:01:43.445Z,13.98
2023-03-26T11:07:45.780Z,3.22
2023-03-26T11:13:35.649Z,8.60
2023-03-26T11:19:20.924Z,5.75
2023-03-26T11:25:02.032Z,2.35
2023-03-26T11:30:54.071Z,6.97
2023-03-26T11:36:24.623Z,1.40
2023-03-26T11:41:47.968Z,5.75
2023-03-26T11:47:12.515Z,6.97
2023-03-26T11:52:34.351Z,12.13
2023-03-26T11:57:59.631Z,4.28
2023-03-26T12:03:21.794Z,3.90
2023-03-26T12:08:43.720Z,4.20
2023-03-26T12:14:06.054Z,2.63
2023-03-26T12:19:34.080Z,4.43
2023-03-26T12:25:17.669Z,5.45
2023-03-26T12:30:42.596Z,3.47
2023-03-26T12:36:26.953Z,5.40
2023-03-26T12:43:40.557Z,4.82
2023-03-26T12:47:59.217Z,2.75
2023-03-26T12:53:53.471Z,4.72
2023-03-26T12:59:26.228Z,11.15
2023-03-26T13:05:05.508Z,3.05
2023-03-26T13:10:59.161Z,6.80
2023-03-26T13:16:56.760Z,15.85
2023-03-26T13:22:41.496Z,8.60
2023-03-26T13:28:18.215Z,9.13
2023-03-26T13:34:04.322Z,9.57
2023-03-26T13:40:07.496Z,3.67
2023-03-26T13:45:44.068Z,4.90
2023-03-26T13:51:33.424Z,3.85
2023-03-26T13:57:21.811Z,4.28
2023-03-26T14:02:48.838Z,7.78
2023-03-26T14:08:32.889Z,1.55
2023-03-26T14:14:06.930Z,3.67
2023-03-26T14:19:37.493Z,5.15
2023-03-26T14:25:08.721Z,1.52
2023-03-26T14:30:58.155Z,1.25
2023-03-26T14:36:59.273Z,2.28
2023-03-26T14:42:42.299Z,10.18
2023-03-26T14:48:38.258Z,3.20
2023-03-26T14:54:07.046Z,3.08
2023-03-26T14:59:49.470Z,3.55
2023-03-26T15:05:23.264Z,4.65
2023-03-26T15:11:22.618Z,2.35
2023-03-26T15:16:56.238Z,4.78
2023-03-26T15:22:35.938Z,6.63
2023-03-26T15:28:18.761Z,6.47
2023-03-26T15:33:40.536Z,8.00
2023-03-26T15:39:44.401Z,11.57
2023-03-26T15:45:35.634Z,9.88
2023-03-26T15:51:23.679Z,10.57
2023-03-26T15:57:31.864Z,8.68
2023-03-26T16:03:11.595Z,7.47
2023-03-26T16:08:57.911Z,10.55
2023-03-26T16:14:23.701Z,5.03
2023-03-26T16:19:50.356Z,7.47
2023-03-26T16:25:26.888Z,6.95
2023-03-26T16:31:10.602Z,11.82
2023-03-26T16:36:50.118Z,5.22
2023-03-26T16:42:47.269Z,8.60
2023-03-26T16:53:43.727Z,9.43
2023-03-26T16:59:29.913Z,4.95
2023-03-26T17:05:00.314Z,5.45
2023-03-26T17:10:41.790Z,5.32
2023-03-26T17:16:18.833Z,9.55
2023-03-26T17:22:00.174Z,7.22
2023-03-26T17:27:28.534Z,4.78
2023-03-26T17:33:00.221Z,10.65
2023-03-26T17:38:25.034Z,8.20
2023-03-26T17:43:52.551Z,11.40
2023-03-26T17:49:24.636Z,5.88
2023-03-26T17:54:50.409Z,6.20
2023-03-26T18:00:23.111Z,7.63
2023-03-26T18:05:46.622Z,4.38
2023-03-26T18:11:27.089Z,4.10
2023-03-26T18:16:53.400Z,8.63
2023-03-26T18:22:24.914Z,10.05
2023-03-26T18:27:47.230Z,6.93
2023-03-26T18:33:16.143Z,4.45
2023-03-26T18:38:39.468Z,5.63
2023-03-26T18:44:04.810Z,6.18
2023-03-26T18:49:30.110Z,9.13
2023-03-26T18:54:54.371Z,6.47
2023-03-26T19:00:23.502Z,6.80
2023-03-26T19:05:45.782Z,7.32
2023-03-26T19:11:09.856Z,5.82
2023-03-26T19:16:35.870Z,4.18
2023-03-26T19:21:59.517Z,5.28
2023-03-26T19:27:21.620Z,10.90
2023-03-26T19:32:54.144Z,9.63
2023-03-26T19:38:26.315Z,5.32
2023-03-26T19:43:50.562Z,6.95
2023-03-26T19:49:42.362Z,8.75
2023-03-26T19:55:07.055Z,11.95
2023-03-26T20:00:29.017Z,9.70
2023-03-26T20:05:50.930Z,12.25
2023-03-26T20:11:20.429Z,7.82
2023-03-26T20:16:45.433Z,11.57
2023-03-26T20:22:13.547Z,12.80
2023-03-26T20:27:35.839Z,10.57
2023-03-26T20:33:13.064Z,9.25
2023-03-26T20:38:39.392Z,7.65
2023-03-26T20:44:03.789Z,7.43
2023-03-26T20:49:29.435Z,9.00
2023-03-26T20:54:52.184Z,7.53
2023-03-26T21:00:26.332Z,6.20
2023-03-26T21:05:51.483Z,5.07
2023-03-26T21:11:31.567Z,4.68
2023-03-26T21:16:53.686Z,2.97
2023-03-26T21:22:37.835Z,3.88
2023-03-26T21:28:24.067Z,5.00
2023-03-26T21:33:49.678Z,6.13
2023-03-26T21:39:11.876Z,5.78
2023-03-26T21:44:35.067Z,5.18
2023-03-26T21:49:57.200Z,5.18
2023-03-26T21:55:20.754Z,4.63
2023-03-26T22:01:19.923Z,4.05
2023-03-26T22:06:46.408Z,3.92
2023-03-26T22:12:08.530Z,4.70
2023-03-26T22:17:30.758Z,3.22
2023-03-26T22:22:53.552Z,5.05
2023-03-26T22:28:15.621Z,6.80
2023-03-26T22:33:40.495Z,4.32
2023-03-26T22:39:02.806Z,5.07
2023-03-26T22:44:24.689Z,4.47
2023-03-26T22:49:46.820Z,4.75
2023-03-26T22:55:09.204Z,3.92
2023-03-26T23:00:32.607Z,3.70
2023-03-26T23:05:59.263Z,2.67
2023-03-26T23:11:22.214Z,4.97
2023-03-26T23:16:45.940Z,3.05
2023-03-26T23:22:09.180Z,3.47
2023-03-26T23:27:30.991Z,3.65
2023-03-26T23:32:53.266Z,3.88
2023-03-26T23:38:15.003Z,3.58
2023-03-26T23:43:36.994Z,2.92
2023-03-26T23:49:02.661Z,3.80
2023-03-26T23:54:25.935Z,2.60
2023-03-26T23:59:48.760Z,2.17
